Time;durP1;ratioP1;P1;durP2;ratioP2;P2;SDS_P1;SDS_P2;PMS_P1;PMS_P2;Temp;Humidity;BMP_temperature;BMP_pressure;BME280_temperature;BME280_humidity;BME280_pressure;Samples;Min_cycle;Max_cycle;Signal;HPM_P1;HPM_P2
2023/12/24 00:01:53;;;;;;;38.88;21.90;;;;;;;4.72;94.19;98660.88;5071230;28;20108;-70
2023/12/24 00:04:18;;;;;;;37.08;20.35;;;;;;;4.67;94.51;98666.53;5071039;28;20447;-70
2023/12/24 00:06:44;;;;;;;33.83;20.33;;;;;;;4.75;94.42;98672.13;5063656;28;20037;-70
2023/12/24 00:09:09;;;;;;;31.17;18.65;;;;;;;4.86;94.19;98675.47;5049819;28;20524;-70
2023/12/24 00:11:35;;;;;;;34.45;19.45;;;;;;;4.76;94.95;98675.72;5051039;28;20516;-70
2023/12/24 00:14:00;;;;;;;23.98;16.50;;;;;;;4.77;95.96;98683.72;5030172;28;20026;-70
2023/12/24 00:16:26;;;;;;;21.67;14.20;;;;;;;4.75;97.40;98679.63;5031275;28;20029;-70
2023/12/24 00:18:51;;;;;;;24.65;14.68;;;;;;;4.86;97.52;98689.31;5031103;28;20021;-70
2023/12/24 00:21:17;;;;;;;18.95;12.70;;;;;;;4.98;97.41;98701.78;5048039;28;20454;-75
2023/12/24 00:23:42;;;;;;;19.50;11.75;;;;;;;5.04;97.90;98693.03;5049420;28;20134;-75
2023/12/24 00:26:09;;;;;;;19.92;11.05;;;;;;;5.19;97.47;98705.66;5052820;28;20029;-75
2023/12/24 00:28:34;;;;;;;15.93;10.25;;;;;;;5.26;98.02;98694.13;5062849;28;20111;-75
2023/12/24 00:30:59;;;;;;;26.63;13.57;;;;;;;5.49;97.41;98702.38;5050705;28;20094;-75
2023/12/24 00:33:25;;;;;;;21.73;12.30;;;;;;;5.58;97.16;98711.53;5050714;28;20045;-75
2023/12/24 00:35:50;;;;;;;19.85;10.63;;;;;;;5.67;96.96;98711.59;5049397;28;20024;-75
2023/12/24 00:38:16;;;;;;;15.43;8.98;;;;;;;5.79;96.60;98705.41;5050851;28;20094;-75
2023/12/24 00:40:41;;;;;;;15.57;7.47;;;;;;;5.89;96.26;98701.53;5031268;28;20036;-75
2023/12/24 00:43:07;;;;;;;12.68;7.57;;;;;;;5.97;96.68;98706.28;5030797;28;20414;-75
2023/12/24 00:45:32;;;;;;;12.60;7.68;;;;;;;6.07;96.37;98710.75;5030738;28;20437;-75
2023/12/24 00:47:58;;;;;;;11.18;7.00;;;;;;;6.22;95.98;98722.56;5034817;28;20032;-75
2023/12/24 00:50:23;;;;;;;12.15;5.95;;;;;;;6.39;94.95;98727.28;5045625;28;20036;-75
2023/12/24 00:52:49;;;;;;;10.55;5.28;;;;;;;6.53;95.17;98725.19;5037758;28;20056;-75
2023/12/24 00:55:15;;;;;;;8.27;5.25;;;;;;;6.70;94.47;98737.44;5034479;28;20490;-75
2023/12/24 00:57:40;;;;;;;8.30;5.38;;;;;;;6.85;93.76;98725.81;5040663;28;20025;-75
2023/12/24 01:00:07;;;;;;;14.02;7.15;;;;;;;6.88;93.24;98724.34;5035223;28;20108;-75
2023/12/24 01:02:33;;;;;;;15.43;7.72;;;;;;;6.84;91.56;98715.84;5035218;28;20117;-75
2023/12/24 01:04:58;;;;;;;11.25;6.10;;;;;;;6.90;89.93;98721.25;5034616;28;20498;-75
2023/12/24 01:07:24;;;;;;;12.10;6.15;;;;;;;6.92;89.82;98722.53;5036631;28;20028;-75
2023/12/24 01:09:49;;;;;;;8.88;5.32;;;;;;;6.98;88.86;98729.59;5048546;28;20040;-75
2023/12/24 01:12:16;;;;;;;6.82;5.47;;;;;;;7.05;88.13;98726.31;5034879;28;20034;-75
2023/12/24 01:14:41;;;;;;;9.65;6.07;;;;;;;7.07;87.81;98706.50;5034156;28;20442;-75
2023/12/24 01:17:07;;;;;;;13.35;6.18;;;;;;;7.11;87.15;98716.63;5034692;28;20068;-75
2023/12/24 01:19:32;;;;;;;8.55;4.85;;;;;;;7.07;87.64;98707.31;5032974;28;20029;-75
2023/12/24 01:21:58;;;;;;;10.57;5.38;;;;;;;7.22;86.62;98719.06;5034181;28;20025;-75
2023/12/24 01:24:23;;;;;;;5.93;4.90;;;;;;;7.32;86.02;98712.34;5032807;28;20551;-75
2023/12/24 01:26:49;;;;;;;12.23;4.60;;;;;;;7.38;85.82;98709.06;5049514;28;20021;-75
2023/12/24 01:29:14;;;;;;;9.27;4.25;;;;;;;7.51;85.46;98723.09;5074035;28;20050;-75
2023/12/24 01:31:40;;;;;;;8.68;4.32;;;;;;;7.56;85.20;98729.28;5058120;28;20040;-72
2023/12/24 01:34:05;;;;;;;6.53;4.57;;;;;;;7.62;84.71;98729.09;5053637;28;20021;-72
2023/12/24 01:36:31;;;;;;;9.75;5.10;;;;;;;7.59;84.81;98727.78;5052718;28;20121;-73
2023/12/24 01:38:56;;;;;;;6.13;5.22;;;;;;;7.52;85.51;98725.50;5052706;28;20543;-72
2023/12/24 01:41:22;;;;;;;9.52;5.32;;;;;;;7.69;84.98;98734.97;5053803;28;20020;-72
2023/12/24 01:43:48;;;;;;;12.82;4.78;;;;;;;7.59;85.31;98727.78;5052458;28;20028;-72
2023/12/24 01:46:19;;;;;;;7.75;4.88;;;;;;;7.60;85.69;98737.75;5053743;28;20021;-72
2023/12/24 01:48:45;;;;;;;8.10;5.07;;;;;;;7.62;85.46;98731.88;5053229;28;20028;-72
2023/12/24 01:51:10;;;;;;;10.60;4.78;;;;;;;7.78;84.87;98751.63;5053692;28;20024;-72
2023/12/24 01:53:36;;;;;;;13.23;6.15;;;;;;;7.64;84.76;98726.78;5051922;28;20140;-72
2023/12/24 01:56:05;;;;;;;7.75;5.63;;;;;;;7.60;84.62;98732.19;5046661;28;20027;-72
2023/12/24 01:58:31;;;;;;;11.30;6.28;;;;;;;7.59;85.14;98734.19;5032023;28;20025;-72
2023/12/24 02:00:57;;;;;;;10.88;7.13;;;;;;;7.57;84.62;98725.34;5033659;28;20025;-72
2023/12/24 02:03:24;;;;;;;12.70;7.35;;;;;;;7.62;84.10;98721.56;5046449;28;20421;-72
2023/12/24 02:05:50;;;;;;;12.82;6.15;;;;;;;7.82;82.99;98733.09;5052091;28;20013;-72
2023/12/24 02:08:18;;;;;;;17.95;7.30;;;;;;;7.79;82.61;98747.69;5052359;28;20017;-72
2023/12/24 02:10:44;;;;;;;9.40;6.55;;;;;;;7.81;82.95;98742.59;5053085;28;20081;-72
2023/12/24 02:13:12;;;;;;;9.07;5.20;;;;;;;7.84;82.03;98744.69;5038329;28;20037;-72
2023/12/24 02:15:38;;;;;;;9.32;5.07;;;;;;;7.72;82.03;98740.69;5032005;28;20490;-72
2023/12/24 02:18:06;;;;;;;9.13;5.18;;;;;;;7.76;82.35;98748.38;5031878;28;20017;-72
2023/12/24 02:20:32;;;;;;;7.25;4.45;;;;;;;7.69;81.64;98741.34;5033240;28;20104;-72
2023/12/24 02:22:57;;;;;;;10.75;4.38;;;;;;;7.83;80.57;98745.84;5031806;28;20570;-71
2023/12/24 02:25:23;;;;;;;11.23;5.15;;;;;;;7.77;80.32;98733.28;5031896;28;20025;-72
2023/12/24 02:27:58;;;;;;;7.78;5.00;;;;;;;7.83;80.45;98759.78;5033044;28;20025;-72
2023/12/24 02:30:32;;;;;;;8.40;5.07;;;;;;;7.71;81.18;98764.09;5040717;28;20100;-72
2023/12/24 02:32:59;;;;;;;9.55;4.88;;;;;;;7.85;79.82;98793.69;5052868;28;20021;-72
2023/12/24 02:35:31;;;;;;;9.23;5.25;;;;;;;7.97;78.87;98784.63;5052154;28;20506;-72
2023/12/24 02:37:56;;;;;;;8.90;5.60;;;;;;;7.79;78.25;98762.44;5047350;28;20067;-72
2023/12/24 02:40:22;;;;;;;6.88;3.67;;;;;;;8.42;73.85;98778.50;5048541;28;20056;-70
2023/12/24 02:42:48;;;;;;;5.20;3.50;;;;;;;8.72;71.04;98788.81;5040115;28;20028;-70
2023/12/24 02:45:13;;;;;;;5.10;2.92;;;;;;;8.85;69.85;98765.44;5052596;28;20028;-70
2023/12/24 02:47:39;;;;;;;3.20;2.30;;;;;;;9.01;69.02;98773.16;5038977;28;20025;-70
2023/12/24 02:50:05;;;;;;;2.55;2.30;;;;;;;8.91;71.07;98795.88;5034146;28;20025;-70
2023/12/24 02:52:30;;;;;;;6.93;3.72;;;;;;;8.61;72.68;98809.88;5044238;28;20032;-70
2023/12/24 02:54:56;;;;;;;8.38;5.63;;;;;;;8.37;73.54;98817.69;5048954;28;20041;-70
2023/12/24 02:57:22;;;;;;;14.23;6.55;;;;;;;8.17;74.51;98810.91;5052374;28;20033;-70
2023/12/24 02:59:48;;;;;;;14.50;6.55;;;;;;;8.05;75.40;98810.81;5052336;28;20474;-70
2023/12/24 03:02:13;;;;;;;8.75;4.57;;;;;;;8.10;75.16;98808.66;5050851;28;20025;-70
2023/12/24 03:04:39;;;;;;;5.63;3.67;;;;;;;8.13;73.68;98807.97;5052265;28;20044;-70
2023/12/24 03:07:04;;;;;;;4.32;3.22;;;;;;;8.35;71.72;98817.22;5051741;28;20027;-70
2023/12/24 03:09:30;;;;;;;9.82;3.15;;;;;;;8.57;68.95;98806.97;5052145;28;20051;-69
2023/12/24 03:11:55;;;;;;;10.20;3.72;;;;;;;8.66;68.62;98818.88;5052004;28;20523;-70
2023/12/24 03:14:21;;;;;;;4.35;2.13;;;;;;;8.70;67.97;98816.22;5050596;28;20025;-70
2023/12/24 03:16:46;;;;;;;4.47;2.30;;;;;;;8.96;65.84;98823.59;5049260;28;20486;-70
2023/12/24 03:19:12;;;;;;;2.55;1.92;;;;;;;9.45;62.58;98836.13;5050451;28;20036;-70
2023/12/24 03:21:41;;;;;;;3.78;2.00;;;;;;;9.11;65.28;98845.28;5050593;28;20416;-70
2023/12/24 03:24:08;;;;;;;3.85;2.05;;;;;;;9.19;64.35;98845.56;5051884;28;20036;-70
2023/12/24 03:26:33;;;;;;;4.50;1.98;;;;;;;9.26;63.62;98841.06;5050694;28;20091;-70
2023/12/24 03:29:00;;;;;;;3.78;1.75;;;;;;;9.26;63.73;98856.97;5052069;28;20021;-70
2023/12/24 03:31:26;;;;;;;9.25;2.60;;;;;;;9.37;62.34;98855.41;5051734;28;20032;-70
2023/12/24 03:33:52;;;;;;;4.55;2.13;;;;;;;9.74;60.59;98857.53;5033157;28;20112;-70
2023/12/24 03:36:18;;;;;;;2.95;1.90;;;;;;;9.49;61.60;98862.19;5033008;28;20497;-70
2023/12/24 03:38:43;;;;;;;2.75;1.95;;;;;;;9.49;61.59;98884.53;5071510;28;20053;-70
2023/12/24 03:41:09;;;;;;;4.45;1.65;;;;;;;9.23;62.90;98877.19;5071470;28;20043;-70
2023/12/24 03:43:35;;;;;;;4.68;1.80;;;;;;;9.09;63.57;98883.88;5071494;28;20024;-70
2023/12/24 03:46:00;;;;;;;4.70;2.58;;;;;;;8.78;65.23;98885.03;5071608;28;20089;-70
2023/12/24 03:48:29;;;;;;;1.40;1.30;;;;;;;8.77;64.70;98899.34;5071255;28;20024;-70
2023/12/24 03:50:55;;;;;;;2.33;2.03;;;;;;;8.89;64.09;98891.06;5031284;28;20036;-71
2023/12/24 03:53:20;;;;;;;6.57;3.10;;;;;;;8.77;65.20;98899.34;5031373;28;20112;-72
2023/12/24 03:55:46;;;;;;;4.75;2.90;;;;;;;8.57;66.36;98901.72;5030300;28;20064;-72
2023/12/24 03:58:11;;;;;;;4.80;3.30;;;;;;;8.52;66.67;98901.94;5031370;28;20545;-72
2023/12/24 04:00:37;;;;;;;4.47;3.28;;;;;;;8.42;67.34;98908.66;5030135;28;20032;-72
2023/12/24 04:03:03;;;;;;;5.22;3.55;;;;;;;8.41;66.44;98907.03;5030479;28;20037;-72
2023/12/24 04:05:28;;;;;;;6.15;3.30;;;;;;;8.49;65.29;98919.28;5032407;28;20616;-72
2023/12/24 04:07:54;;;;;;;4.90;3.42;;;;;;;8.50;65.16;98913.41;5064825;28;20035;-72
2023/12/24 04:10:19;;;;;;;4.43;3.40;;;;;;;8.50;65.25;98920.91;5071183;28;20031;-72
2023/12/24 04:12:44;;;;;;;10.82;5.75;;;;;;;8.40;65.26;98928.50;5071044;28;20409;-71
2023/12/24 04:15:10;;;;;;;11.82;5.60;;;;;;;8.43;65.76;98938.16;5070346;28;20040;-72
2023/12/24 04:17:36;;;;;;;11.77;6.38;;;;;;;8.37;65.45;98942.28;5070170;28;20055;-71
2023/12/24 04:20:03;;;;;;;14.38;7.22;;;;;;;8.33;65.80;98932.97;5071417;28;20021;-72
2023/12/24 04:22:29;;;;;;;12.38;6.10;;;;;;;8.34;65.84;98937.38;5051919;28;20056;-71
2023/12/24 04:24:54;;;;;;;9.05;5.78;;;;;;;8.30;65.65;98934.44;5049723;28;20485;-72
2023/12/24 04:27:20;;;;;;;5.90;4.32;;;;;;;8.35;65.67;98944.59;5051170;28;20107;-72
2023/12/24 04:29:45;;;;;;;7.90;4.65;;;;;;;8.30;65.71;98942.81;5050921;28;20028;-72
2023/12/24 04:32:12;;;;;;;4.13;3.40;;;;;;;8.27;66.36;98946.25;5051019;28;20405;-72
2023/12/24 04:34:38;;;;;;;5.90;3.95;;;;;;;8.37;65.82;98959.81;5050805;28;20078;-72
2023/12/24 04:37:04;;;;;;;7.68;3.85;;;;;;;8.43;65.47;98966.03;5057004;28;20432;-72
2023/12/24 04:39:29;;;;;;;7.72;3.03;;;;;;;8.45;66.11;98976.84;5051011;28;20056;-72
2023/12/24 04:41:55;;;;;;;5.53;3.42;;;;;;;8.39;66.38;98971.47;5049595;28;20021;-72
2023/12/24 04:44:21;;;;;;;14.02;5.72;;;;;;;8.28;66.90;98968.19;5050875;28;20018;-72
2023/12/24 04:46:47;;;;;;;12.57;6.72;;;;;;;8.36;67.10;98972.13;5049826;28;20409;-72
2023/12/24 04:49:13;;;;;;;12.15;6.00;;;;;;;8.38;67.22;98980.94;5050659;28;20104;-72
2023/12/24 04:51:40;;;;;;;5.80;2.88;;;;;;;8.42;66.38;98981.94;5049488;28;20488;-72
2023/12/24 04:54:06;;;;;;;17.35;9.40;;;;;;;8.40;67.03;99003.75;5036313;28;20029;-72
2023/12/24 04:56:32;;;;;;;19.98;11.30;;;;;;;8.29;67.67;98985.75;5048092;28;20127;-72
2023/12/24 04:58:58;;;;;;;10.85;6.60;;;;;;;8.45;67.17;99008.34;5049262;28;20025;-71
2023/12/24 05:01:24;;;;;;;8.40;5.43;;;;;;;8.43;67.15;99005.88;5050914;28;20021;-70
2023/12/24 05:03:49;;;;;;;3.47;3.15;;;;;;;8.54;65.81;98989.63;5049169;28;20032;-70
2023/12/24 05:06:14;;;;;;;5.47;3.70;;;;;;;8.59;66.45;99004.56;5048975;28;20550;-70
2023/12/24 05:08:41;;;;;;;6.15;3.80;;;;;;;8.47;67.19;99016.34;5055835;28;20028;-70
2023/12/24 05:11:07;;;;;;;5.25;4.07;;;;;;;8.40;67.90;99026.06;5035892;28;20413;-70
2023/12/24 05:13:34;;;;;;;6.18;4.30;;;;;;;8.31;68.90;99014.09;5029422;28;20104;-70
2023/12/24 05:15:59;;;;;;;6.18;4.95;;;;;;;8.17;69.96;99014.28;5030745;28;20022;-70
2023/12/24 05:18:25;;;;;;;10.18;5.10;;;;;;;8.33;67.77;99011.78;5029399;28;20029;-70
2023/12/24 05:20:50;;;;;;;5.25;3.30;;;;;;;8.54;67.83;99036.22;5030446;28;20037;-70
2023/12/24 05:23:19;;;;;;;8.20;3.38;;;;;;;8.52;67.33;99036.53;5030371;28;20136;-70
2023/12/24 05:25:44;;;;;;;6.03;3.85;;;;;;;8.49;68.04;99028.81;5029253;28;20474;-70
2023/12/24 05:28:10;;;;;;;3.97;2.75;;;;;;;8.47;68.04;99021.94;5029323;28;20029;-69
2023/12/24 05:30:35;;;;;;;4.68;3.65;;;;;;;8.40;67.57;99016.88;5030665;28;20030;-70
2023/12/24 05:33:01;;;;;;;6.38;3.95;;;;;;;8.45;68.06;99025.06;5030407;28;20017;-70
2023/12/24 05:35:26;;;;;;;5.00;3.88;;;;;;;8.34;69.35;99044.09;5033910;28;20018;-70
2023/12/24 05:37:55;;;;;;;7.88;3.55;;;;;;;8.33;68.71;99036.06;5044817;28;20033;-70
2023/12/24 05:40:20;;;;;;;5.35;3.53;;;;;;;8.36;68.86;99049.34;5053557;28;20111;-69
2023/12/24 05:42:46;;;;;;;5.18;3.40;;;;;;;8.32;69.82;99053.91;5052559;28;20082;-70
2023/12/24 05:45:11;;;;;;;9.60;5.53;;;;;;;8.25;70.62;99060.81;5041354;28;20025;-69
2023/12/24 05:47:38;;;;;;;6.05;3.60;;;;;;;8.34;69.71;99051.66;5034207;28;20018;-70
2023/12/24 05:50:08;;;;;;;6.05;4.05;;;;;;;8.33;69.30;99063.94;5032944;28;20116;-72
2023/12/24 05:52:33;;;;;;;;;;;;;;;8.40;69.17;99069.81;5033016;28;20036;-68
2023/12/24 05:55:00;;;;;;;16.63;8.77;;;;;;;8.37;68.50;99062.94;5032268;28;19913;-71
2023/12/24 05:57:26;;;;;;;21.05;10.57;;;;;;;8.42;69.56;99073.09;5033684;28;20456;-71
2023/12/24 05:59:51;;;;;;;15.10;9.15;;;;;;;8.42;69.28;99073.91;5033333;28;20029;-71
2023/12/24 06:02:20;;;;;;;14.57;8.18;;;;;;;8.59;67.95;99082.63;5032291;28;20025;-70
2023/12/24 06:04:45;;;;;;;13.32;8.30;;;;;;;8.65;68.70;99086.84;5032461;28;20486;-69
2023/12/24 06:07:11;;;;;;;9.23;6.50;;;;;;;8.70;67.50;99095.06;5035132;28;20039;-70
2023/12/24 06:09:36;;;;;;;10.10;6.75;;;;;;;8.79;66.83;99083.88;5047074;28;20413;-69
2023/12/24 06:12:02;;;;;;;20.80;8.48;;;;;;;8.82;67.51;99092.41;5047591;28;20508;-71
2023/12/24 06:14:28;;;;;;;8.90;5.75;;;;;;;8.88;66.91;99098.63;5053579;28;20025;-72
2023/12/24 06:16:53;;;;;;;8.93;5.65;;;;;;;8.86;67.00;99084.16;5053360;28;20025;-71
2023/12/24 06:19:19;;;;;;;11.55;5.93;;;;;;;8.98;67.63;99083.47;5046916;28;20402;-72
2023/12/24 06:21:44;;;;;;;14.85;8.02;;;;;;;8.98;68.59;99101.03;5037798;28;20047;-71
2023/12/24 06:24:10;;;;;;;10.63;7.05;;;;;;;8.90;68.81;99096.31;5032324;28;20031;-71
2023/12/24 06:26:35;;;;;;;10.88;6.53;;;;;;;8.91;68.64;99103.53;5050361;28;20509;-70
2023/12/24 06:29:01;;;;;;;12.18;6.78;;;;;;;8.85;68.60;99100.09;5051235;28;20111;-72
2023/12/24 06:31:27;;;;;;;13.38;7.00;;;;;;;8.84;69.07;99104.03;5052589;28;20098;-71
2023/12/24 06:33:53;;;;;;;10.07;6.32;;;;;;;8.87;68.47;99112.88;5035835;28;20029;-71
2023/12/24 06:36:18;;;;;;;16.10;6.97;;;;;;;8.73;68.99;99110.28;5048110;28;20343;-70
2023/12/24 06:38:44;;;;;;;11.25;7.35;;;;;;;8.78;68.70;99110.94;5036408;28;20021;-71
2023/12/24 06:41:10;;;;;;;13.18;7.43;;;;;;;8.83;68.41;99115.50;5041452;28;20064;-70
2023/12/24 06:43:38;;;;;;;44.42;28.52;;;;;;;8.91;68.08;99120.25;5045397;28;20013;-71
2023/12/24 06:46:11;;;;;;;89.93;66.88;;;;;;;8.90;68.44;99115.00;5051440;28;20064;-70
2023/12/24 06:48:37;;;;;;;25.27;16.27;;;;;;;9.05;68.04;99128.44;5045770;28;20395;-72
2023/12/24 06:51:03;;;;;;;16.60;10.65;;;;;;;9.11;67.81;99124.28;5029508;28;20091;-70
2023/12/24 06:53:28;;;;;;;41.75;22.25;;;;;;;8.98;66.91;99130.91;5034004;28;20392;-70
2023/12/24 06:55:54;;;;;;;16.55;9.43;;;;;;;9.04;67.48;99146.28;5036718;28;20083;-68
2023/12/24 06:58:19;;;;;;;19.23;14.68;;;;;;;9.13;67.05;99158.25;5030846;28;20040;-69
2023/12/24 07:00:45;;;;;;;8.95;6.88;;;;;;;9.18;66.78;99150.88;5029327;28;20057;-68
2023/12/24 07:03:11;;;;;;;15.38;5.88;;;;;;;9.16;67.27;99144.78;5045374;28;20037;-68
2023/12/24 07:05:38;;;;;;;13.82;7.13;;;;;;;9.12;66.28;99128.72;5049772;28;20020;-69
2023/12/24 07:08:07;;;;;;;10.80;6.03;;;;;;;9.43;64.90;99162.28;5054825;28;20124;-69
2023/12/24 07:10:32;;;;;;;13.15;7.10;;;;;;;9.65;64.04;99162.00;5068298;28;20507;-69
2023/12/24 07:12:58;;;;;;;11.18;4.43;;;;;;;9.72;64.55;99164.28;5030560;28;21694;-72
2023/12/24 07:15:26;;;;;;;8.40;4.95;;;;;;;9.67;65.02;99172.81;5038010;28;20059;-69
2023/12/24 07:17:52;;;;;;;6.20;4.25;;;;;;;9.60;66.16;99170.56;5049896;28;20029;-70
2023/12/24 07:20:17;;;;;;;15.30;7.85;;;;;;;9.63;65.93;99175.47;5040106;28;20039;-73
2023/12/24 07:22:43;;;;;;;15.68;5.43;;;;;;;9.76;64.66;99172.78;5049341;28;20052;-72
2023/12/24 07:25:09;;;;;;;6.38;4.45;;;;;;;9.78;64.76;99181.66;5051812;28;20029;-71
2023/12/24 07:27:35;;;;;;;7.65;3.67;;;;;;;9.78;66.22;99190.03;5054222;28;20033;-74
2023/12/24 07:30:01;;;;;;;6.65;5.05;;;;;;;9.74;66.63;99200.22;5066339;28;20150;-73
2023/12/24 07:32:26;;;;;;;7.93;5.63;;;;;;;9.78;67.01;99201.22;5053051;28;20035;-73
2023/12/24 07:34:52;;;;;;;10.07;5.07;;;;;;;9.82;67.33;99202.97;5055629;28;20072;-74
2023/12/24 07:37:17;;;;;;;20.25;10.32;;;;;;;9.83;66.86;99192.63;5041781;28;20037;-71
2023/12/24 07:39:43;;;;;;;30.02;13.18;;;;;;;9.90;66.76;99197.69;5062899;28;20024;-71
2023/12/24 07:42:08;;;;;;;15.23;8.45;;;;;;;9.96;65.54;99188.78;5040908;28;20021;-72
2023/12/24 07:44:34;;;;;;;22.08;14.02;;;;;;;10.02;64.27;99188.59;5055599;28;20027;-75
2023/12/24 07:47:02;;;;;;;14.55;7.35;;;;;;;10.22;63.01;99198.16;5051114;28;20029;-74
2023/12/24 07:49:28;;;;;;;16.10;8.40;;;;;;;10.33;62.04;99193.81;5035872;28;20035;-72
2023/12/24 07:51:53;;;;;;;24.77;17.58;;;;;;;10.43;62.69;99198.19;5066185;28;20021;-74
2023/12/24 07:54:19;;;;;;;33.50;18.92;;;;;;;10.55;61.76;99197.41;5052286;28;20166;-75
2023/12/24 07:56:44;;;;;;;13.32;8.98;;;;;;;10.62;61.46;99194.09;5061311;28;20420;-72
2023/12/24 07:59:10;;;;;;;12.30;6.97;;;;;;;10.80;60.79;99203.16;5059220;28;20032;-72
2023/12/24 08:01:38;;;;;;;12.63;7.03;;;;;;;10.88;60.25;99201.44;5050340;28;20464;-71
2023/12/24 08:04:04;;;;;;;31.10;15.82;;;;;;;10.89;60.13;99201.09;5062135;28;20082;-72
2023/12/24 08:06:30;;;;;;;12.85;6.60;;;;;;;10.92;60.13;99197.63;5053202;28;20028;-74
2023/12/24 08:08:56;;;;;;;32.88;22.23;;;;;;;10.91;59.03;99198.75;5057669;28;20421;-72
2023/12/24 08:11:22;;;;;;;241.18;146.35;;;;;;;11.08;59.21;99208.97;5040461;28;20029;-75
2023/12/24 08:13:47;;;;;;;222.02;108.80;;;;;;;11.16;58.69;99210.06;5057664;28;20029;-75
2023/12/24 08:16:13;;;;;;;1999.90;912.20;;;;;;;11.37;58.80;99201.59;5049414;28;20035;-75
2023/12/24 08:18:38;;;;;;;552.08;349.95;;;;;;;11.51;58.04;99209.63;5061467;28;20028;-74
2023/12/24 08:21:07;;;;;;;457.45;245.13;;;;;;;11.59;56.76;99205.13;5053020;28;20032;-74
2023/12/24 08:23:33;;;;;;;275.90;132.10;;;;;;;11.49;56.80;99195.16;5046192;28;20102;-75
2023/12/24 08:25:59;;;;;;;470.00;240.85;;;;;;;11.58;57.44;99203.47;5035254;28;20066;-75
2023/12/24 08:28:25;;;;;;;377.67;156.02;;;;;;;11.48;57.54;99192.75;5026431;28;20494;-73
2023/12/24 08:30:50;;;;;;;179.40;72.22;;;;;;;11.56;57.38;99200.19;5026705;28;20429;-71
2023/12/24 08:33:16;;;;;;;132.43;61.92;;;;;;;11.79;56.92;99199.75;5043759;28;20037;-71
2023/12/24 08:35:41;;;;;;;319.15;156.73;;;;;;;11.94;56.18;99201.03;5043455;28;20032;-73
2023/12/24 08:38:06;;;;;;;113.00;57.15;;;;;;;12.25;55.15;99202.44;5034669;28;20506;-72
2023/12/24 08:40:32;;;;;;;184.70;67.50;;;;;;;12.37;54.46;99201.59;5067861;28;20032;-72
2023/12/24 08:42:58;;;;;;;95.70;32.45;;;;;;;12.33;53.21;99206.28;5067690;28;20037;-71
2023/12/24 08:45:23;;;;;;;859.75;409.42;;;;;;;12.40;54.14;99197.28;5041017;28;20043;-71
2023/12/24 08:47:48;;;;;;;44.63;18.73;;;;;;;12.36;53.49;99189.56;5027217;28;20025;-72
2023/12/24 08:50:17;;;;;;;305.88;130.13;;;;;;;12.33;52.72;99184.66;5026405;28;20362;-71
2023/12/24 08:52:43;;;;;;;85.03;31.33;;;;;;;12.13;53.98;99174.44;5025935;28;20508;-71
2023/12/24 08:55:08;;;;;;;44.35;17.13;;;;;;;12.21;52.79;99171.50;5030236;28;20033;-71
2023/12/24 08:57:34;;;;;;;23.02;9.23;;;;;;;12.45;52.29;99177.38;5027344;28;20391;-71
2023/12/24 09:00:00;;;;;;;110.78;43.08;;;;;;;12.58;51.77;99167.75;5027386;28;20600;-71
2023/12/24 09:02:25;;;;;;;24.70;10.50;;;;;;;12.66;52.22;99159.56;5039128;28;20037;-71
2023/12/24 09:04:50;;;;;;;14.25;3.83;;;;;;;12.75;52.37;99166.63;5039391;28;20063;-71
2023/12/24 09:07:17;;;;;;;10.65;4.40;;;;;;;12.89;53.16;99174.66;5032255;28;20033;-71
2023/12/24 09:09:42;;;;;;;14.55;7.35;;;;;;;13.01;52.58;99159.72;5037440;28;20497;-71
2023/12/24 09:12:08;;;;;;;46.40;17.90;;;;;;;13.17;52.85;99171.00;5040873;28;20032;-72
2023/12/24 09:14:33;;;;;;;39.58;18.20;;;;;;;13.21;53.01;99162.66;5042107;28;20065;-71
2023/12/24 09:16:59;;;;;;;9.43;3.90;;;;;;;13.28;51.20;99151.63;5045107;28;20079;-71
2023/12/24 09:19:25;;;;;;;8.23;3.40;;;;;;;13.38;51.27;99149.44;5041232;28;20033;-70
2023/12/24 09:21:50;;;;;;;22.98;12.13;;;;;;;13.46;50.71;99146.50;5036821;28;20446;-71
2023/12/24 09:24:15;;;;;;;8.45;4.13;;;;;;;13.53;48.77;99143.06;5040565;28;20039;-70
2023/12/24 09:26:41;;;;;;;5.00;1.98;;;;;;;13.48;50.12;99143.31;5037935;28;20029;-71
2023/12/24 09:29:06;;;;;;;3.13;2.05;;;;;;;13.61;48.84;99133.63;5046020;28;20083;-71
2023/12/24 09:31:32;;;;;;;21.27;6.40;;;;;;;13.73;48.54;99140.31;5038093;28;20087;-71
2023/12/24 09:33:59;;;;;;;11.82;4.25;;;;;;;13.79;47.70;99122.00;5031718;28;20021;-71
2023/12/24 09:36:24;;;;;;;6.90;2.88;;;;;;;13.80;48.94;99120.81;5051180;28;20036;-71
2023/12/24 09:38:50;;;;;;;5.30;3.08;;;;;;;13.84;47.69;99121.72;5053822;28;20513;-71
2023/12/24 09:41:17;;;;;;;2.35;1.45;;;;;;;13.75;46.54;99116.28;5053813;28;20060;-71
2023/12/24 09:43:43;;;;;;;5.25;2.55;;;;;;;13.93;48.57;99112.25;5053723;28;20036;-71
2023/12/24 09:46:08;;;;;;;20.75;7.45;;;;;;;13.95;47.17;99099.47;5053898;28;20029;-70
2023/12/24 09:48:34;;;;;;;5.28;2.72;;;;;;;13.93;48.12;99106.66;5053729;28;20100;-71
2023/12/24 09:51:01;;;;;;;50.75;18.60;;;;;;;13.98;47.54;99100.72;5052605;28;20496;-71
2023/12/24 09:53:27;;;;;;;28.45;9.02;;;;;;;13.95;47.40;99098.66;5046175;28;20472;-71
2023/12/24 09:55:52;;;;;;;8.85;2.28;;;;;;;13.93;47.98;99107.44;5043069;28;20114;-70
2023/12/24 09:58:18;;;;;;;4.88;3.05;;;;;;;13.86;47.87;99088.41;5052951;28;20024;-71
2023/12/24 10:00:44;;;;;;;8.35;3.55;;;;;;;13.91;48.70;99092.94;5053365;28;20029;-72
2023/12/24 10:03:09;;;;;;;8.77;4.28;;;;;;;13.90;47.87;99097.75;5053123;28;20029;-73
2023/12/24 10:05:57;;;;;;;6.18;4.05;;;;;;;13.83;47.31;99106.03;5062053;28;20033;-74
2023/12/24 10:08:22;;;;;;;14.35;6.90;;;;;;;13.87;48.99;99101.28;5073085;28;20464;-73
2023/12/24 10:10:48;;;;;;;4.13;2.50;;;;;;;13.87;47.47;99084.41;5073253;28;20025;-74
2023/12/24 10:13:19;;;;;;;10.68;4.25;;;;;;;14.06;47.97;99090.44;5073787;28;20413;-71
2023/12/24 10:15:44;;;;;;;3.28;2.13;;;;;;;14.16;46.13;99082.25;5061690;28;20037;-71
2023/12/24 10:18:17;;;;;;;9.32;3.08;;;;;;;14.33;46.80;99088.63;5031536;28;20036;-72
2023/12/24 10:20:43;;;;;;;2.97;1.73;;;;;;;14.35;45.56;99082.63;5032272;28;20057;-70
2023/12/24 10:23:09;;;;;;;17.27;7.88;;;;;;;14.63;46.60;99078.75;5048851;28;20469;-70
2023/12/24 10:25:34;;;;;;;20.20;6.47;;;;;;;14.93;45.22;99080.97;5051833;28;20482;-74
2023/12/24 10:28:07;;;;;;;6.35;3.08;;;;;;;15.16;44.80;99078.97;5053190;28;20090;-72
2023/12/24 10:30:33;;;;;;;9.68;7.78;;;;;;;15.41;43.88;99086.22;5052004;28;20027;-73
2023/12/24 10:33:09;;;;;;;37.25;17.05;;;;;;;15.33;43.67;99081.66;5051241;28;20044;-74
2023/12/24 10:35:36;;;;;;;9.60;4.65;;;;;;;15.35;43.55;99066.00;5049946;28;20092;-75
2023/12/24 10:38:11;;;;;;;15.65;6.05;;;;;;;15.47;42.54;99065.00;5035044;28;20565;-75
2023/12/24 10:40:37;;;;;;;4.40;1.70;;;;;;;15.84;41.51;99055.88;5049035;28;20029;-75
2023/12/24 10:43:03;;;;;;;2.85;2.40;;;;;;;15.90;41.94;99062.03;5039042;28;20478;-75
2023/12/24 10:45:28;;;;;;;8.98;2.38;;;;;;;15.64;42.27;99049.56;5031635;28;20034;-74
2023/12/24 10:47:54;;;;;;;34.20;12.77;;;;;;;15.60;42.36;99056.31;5044082;28;20043;-74
2023/12/24 10:50:20;;;;;;;4.95;2.55;;;;;;;15.44;42.03;99054.44;5051413;28;20029;-74
2023/12/24 10:52:46;;;;;;;366.63;168.35;;;;;;;15.59;42.91;99055.50;5051456;28;20382;-74
2023/12/24 10:55:11;;;;;;;521.35;373.10;;;;;;;15.78;42.86;99054.56;5035023;28;20036;-74
2023/12/24 10:57:44;;;;;;;14.70;8.85;;;;;;;15.60;41.98;99045.03;5042065;28;20429;-74
2023/12/24 11:00:14;;;;;;;124.13;48.53;;;;;;;15.68;42.77;99032.66;5031019;28;20025;-74
2023/12/24 11:02:47;;;;;;;178.88;72.35;;;;;;;15.80;43.01;99043.72;5033952;28;20025;-73
2023/12/24 11:05:45;;;;;;;8.85;2.88;;;;;;;15.47;41.99;99045.25;5039804;28;20044;-73
2023/12/24 11:08:30;;;;;;;6.93;3.22;;;;;;;15.26;41.80;99032.44;5051427;28;20453;-73
2023/12/24 11:10:57;;;;;;;5.68;4.30;;;;;;;15.30;42.68;99033.31;5046672;28;20025;-74
2023/12/24 11:13:31;;;;;;;5.88;3.20;;;;;;;15.41;42.03;99039.13;5039999;28;20021;-74
2023/12/24 11:16:01;;;;;;;6.13;1.95;;;;;;;15.35;42.24;99026.53;5051157;28;20033;-73
2023/12/24 11:18:47;;;;;;;2.00;1.30;;;;;;;15.49;42.57;99028.78;5034416;28;20025;-73
2023/12/24 11:21:19;;;;;;;5.68;2.50;;;;;;;15.31;42.65;99014.41;5038154;28;20021;-72
2023/12/24 11:24:14;;;;;;;4.22;2.58;;;;;;;15.39;41.77;99006.88;5031592;28;20125;-71
2023/12/24 11:26:50;;;;;;;4.95;3.55;;;;;;;15.43;41.69;99004.91;5031191;28;20083;-73
2023/12/24 11:29:40;;;;;;;2.72;1.98;;;;;;;15.38;41.10;99013.72;5030974;28;20090;-72